Terminal Aerodrome Forecast
Issued by NWS

Home | Current Version | Previous Version | Graphics & Text | Print | Product List | Glossary Off
Versions: 1 2 3 4 5 6 7 8 9 10 11 12 13 14 15 16 17 18 19 20

000
FTUS43 KGRB 271725
TAFMTW
TAF
KMTW 271725Z 2718/2818 18007KT P6SM FEW080 SCT250
     FM280600 16005KT P6SM BKN090
     FM280900 15006KT 4SM -RA OVC025
     FM281000 14007KT 3SM -RA OVC008
     FM281500 16006KT 1 1/2SM -DZ OVC003=

USA.gov is the U.S. government's official web portal to all federal, state and local government web resources and services.